Flight Track Log - Related Links

Times and Time Zones

All times are in EDT time to prevent confusion due to time zone crossing. See the N2963Z flight status page for this flight to view local times or setup timezone preferences in your user account.


Time Position Orientation Groundspeed Altitude Reporting Facility
EDT Latitude Longitude Course Direction KTS MPH feet Rate Location/Type
Thu 08:25:22 AM 35.1528 -76.9867 North 74 85 4,100  Level Washington Center
Thu 08:26:00 AM 35.3528 -77.0017 North  Level FlightAware Approximate
Thu 08:26:20 AM 35.1736 -76.9922 348° North 110 127 4,600  Level Washington Center
Thu 08:27:00 AM 35.3928 -76.9913 15° North  Level FlightAware Approximate
Thu 08:27:21 AM 35.1942 -76.9950 354° North 97 112 4,900  Level Washington Center
Thu 08:28:00 AM 35.4330 -76.9819 North  Level FlightAware Approximate
Thu 08:28:21 AM 35.2172 -76.9981 354° North 85 98 5,400  Level Washington Center
Thu 08:29:00 AM 35.4739 -76.9781 North  Level FlightAware Approximate
Thu 08:29:22 AM 35.2403 -76.9958 North 85 98 5,800  Level Washington Center
Thu 08:30:00 AM 35.5149 -76.9744 North  Level FlightAware Approximate
Thu 08:30:20 AM 35.2653 -76.9989 354° North 85 98 6,100  Level Washington Center
Thu 08:31:20 AM 35.2883 -76.9917 14° North 85 98 6,500 347 Climbing Washington Center
Thu 08:32:21 AM 35.3175 -76.9869 North 85 98 6,800 198 Climbing Washington Center
Thu 08:33:21 AM 35.3531 -76.9825 North 107 123 6,900 50 Climbing Washington Center
Thu 08:34:22 AM 35.3886 -76.9703 16° North 123 142 6,900  Level Washington Center
Thu 08:35:20 AM 35.4283 -76.9686 North 129 148 6,900  Level Washington Center
Thu 08:36:20 AM 35.4700 -76.9667 North 134 154 6,900  Level Washington Center
Thu 08:37:20 AM 35.5097 -76.9647 North 134 154 6,900  Level Washington Center
Thu 08:38:21 AM 35.5494 -76.9631 North 140 161 6,900 -49 Level Washington Center
Thu 08:39:22 AM 35.5869 -76.9558 North 140 161 6,800  Descending Washington Center
Thu 08:40:20 AM 35.6267 -76.9514 North 140 161 6,900 50 Climbing Washington Center
Thu 08:41:21 AM 35.6706 -76.9497 North 140 161 6,900  Level Washington Center
Thu 08:42:22 AM 35.7122 -76.9531 356° North 140 161 6,900  Level Washington Center
Thu 08:43:22 AM 35.7542 -76.9486 North 140 161 6,900  Level Washington Center
Thu 08:44:20 AM 35.7958 -76.9467 North 140 161 6,900  Level Washington Center
Thu 08:45:21 AM 35.8333 -76.9372 12° North 140 161 6,900  Level Washington Center
Thu 08:46:22 AM 35.8772 -76.9328 North 140 161 6,900  Level Washington Center
Thu 08:47:22 AM 35.9192 -76.9206 13° North 145 167 6,900  Level Washington Center
Thu 08:48:20 AM 35.9611 -76.9136 North 145 167 6,900  Level Washington Center
Thu 08:49:20 AM 36.0028 -76.9067 North 145 167 6,900 50 Level Washington Center
Thu 08:50:20 AM 36.0425 -76.8994 North 145 167 7,000 60 Climbing Washington Center
Thu 08:51:00 AM 36.0697 -76.8947 North 151 174 7,000  Level Washington Center
Thu 08:51:22 AM 36.0864 -76.8875 19° North 145 167 7,000  Level Washington Center
Thu 08:52:13 AM 36.1200 -76.8647 29° Northeast 164 189 7,000  Level Washington Center
Thu 08:53:20 AM 36.1622 -76.8269 36° Northeast 158 182 7,000  Level Washington Center
Thu 08:54:20 AM 36.2000 -76.7967 33° Northeast 163 188 7,000  Level Washington Center
Thu 08:55:21 AM 36.2358 -76.7689 32° Northeast 162 186 7,000  Level Washington Center
Thu 08:56:21 AM 36.2736 -76.7411 31° Northeast 163 188 7,000  Level Washington Center
Thu 08:57:28 AM 36.3158 -76.7003 38° Northeast 164 189 7,000  Level Washington Center
Thu 08:58:20 AM 36.3494 -76.6725 34° Northeast 158 182 7,000  Level Washington Center
Thu 08:58:35 AM 36.3578 -76.6700 14° North 164 189 7,000 -207 Level Washington Center
Thu 08:59:18 AM 36.3831 -76.6394 44° Northeast 171 197 6,800 -346 Descending Washington Center
Thu 09:00:19 AM 36.4167 -76.5986 44° Northeast 184 212 6,400 -394 Descending Washington Center
Thu 09:01:35 AM 36.4653 -76.5397 44° Northeast 179 206 5,900 -454 Descending Washington Center
Thu 09:02:18 AM 36.4883 -76.5067 49° Northeast 182 209 5,500 -446 Descending Washington Center
Thu 09:03:36 AM 36.5411 -76.4581 36° Northeast 174 200 5,000 -244 Descending Washington Center
Thu 09:04:21 AM 36.5661 -76.4325 39° Northeast 162 186 5,000  Level Washington Center
Thu 09:05:28 AM 36.6039 -76.3914 41° Northeast 159 183 5,000  Level Washington Center
Thu 09:06:28 AM 36.6375 -76.3556 41° Northeast 161 185 5,000  Level Washington Center
Thu 09:07:29 AM 36.6733 -76.3197 39° Northeast 161 185 5,000 -50 Level Washington Center
Thu 09:08:29 AM 36.7047 -76.2811 45° Northeast 164 189 4,900 -446 Descending Washington Center
Thu 09:09:30 AM 36.7447 -76.2400 39° Northeast 183 211 4,100 -738 Descending Washington Center
Thu 09:10:31 AM 36.7867 -76.2067 32° Northeast 179 206 3,400 -953 Descending Washington Center
Thu 09:11:17 AM 36.8200 -76.1836 29° Northeast 168 193 2,400 -1,109 Descending Washington Center
Thu 09:12:30 AM 36.8597 -76.1578 27° Northeast 110 127 1,200 -761 Descending Washington Center
Thu 09:13:39 AM 36.8764 -76.1864 306° West 84 97 600 -522 Descending Washington Center

Login

Don't have an account? Register now (free) for customized features, flight alerts, and more!